Brookfield, GA

9:11 AM EST on November 24, 2014 (GMT -0500)
Myers | Change Station
CLOSE
Current Station
Airport
Location: Henry Tift Myers AP, Tifton,,
Elevation: 354 ft
Nearby Weather Stations

Elev 354 ft 31.43 °N, 83.49 °W | Updated 16 minutes ago

Light Drizzle
Light Drizzle
69 °F
Feels Like 69 °F
N
7
Wind Variable Wind from SW

Today
High -- | Low -- °F
--% Chance of Precip.
Yesterday
High -- | Low -- °F
Precip. -- in
7:09 AM 5:31 PM
Waxing Crescent, 5% visible
Pressure 29.87 in
Visibility 7.0 miles
Clouds Mostly Cloudy 4800 ft
Overcast 6000 ft
Dew Point 68 °F
Humidity 96%
Rainfall 0.00 in
Snow Depth Not available.
UV 0 out of 12
Pollen 1.00 out of 12
Air Quality Not available.
Flu Activity Not available.
METAR KTMA 241355Z AUTO 23006KT 7SM -DZ BKN048 OVC060 21/20 A2987 RMK AO2 LTG DSNT NE T02070201

More Conditions Fewer Conditions

Pressure 29.87 in
Visibility 7.0 miles
Clouds Mostly Cloudy 4800 ft
Overcast 6000 ft
Dew Point 68 °F
Humidity 96%
Rainfall 0.00 in
Snow Depth Not available.
UV 0 out of 12
Pollen 1.00 out of 12
Air Quality Not available.
Flu Activity Not available.
METAR KTMA 241355Z AUTO 23006KT 7SM -DZ BKN048 OVC060 21/20 A2987 RMK AO2 LTG DSNT NE T02070201

More Conditions Fewer Conditions

10-Day Weather Forecast

Almanac

Astronomy

Nov. 24, 2014 Rise Set
Actual Time
Civil Twilight
Nautical Twilight
Astronomical Twilight
Moon
Length of Visible Light
Length of Day
Tomorrow will be .
, % of the Moon is Illuminated

Today's Extremes

State Highs State Lows

Community

WunderPhotos

Upload Photos

1,773,332 photos uploaded!

WunderBlogs® & News

Nearby

Air Quality

  Air Quality AQ Index Pollutant
Not available.

Snow Depth

Station Depth Elevation

Earthquake Activity

City Distance Mag. Time & Date
Minimum magnitude displayed is 2.5.

Coastal Water Temperatures

Place Temperature

Nearby Weather Stations